Hooper, Washington
Current Conditions -  °F | °C
As of 12:53 AM on Thursday 23 Oct 2014 (Local Time) from KALW Reporting Station
Overcast Overcast  
Wind Chill: 70°   Ceiling: 8000
Heat Index: 70°   Visibility: 10mi
Dew Point: 40°   Wind: 22mph
Humidity: 33%   Direction: 180°S
Pressure: 29.73"   Gusts: 33mph
Location:  46.75°N, 118.15°W
Report Text: KALW 230753Z AUTO 18019G29KT 10SM OVC080 21/04 A2973 RMK AO2 PK WND 17032/0737 SLP062 T02110044 402330083
Loading
Personal Weather Stations






























Interactive Weather Map
Tropical Storm Tracking
New forecast layout! Learn more

10-Day Weather Forecast

Advertisements
Track Severe Weather on mobile